Weather History for Colby, KS

Change the Weather History Date:

Sunday, August 18, 2013

  Actual Average (KGLD) Record (KGLD)
Temperature  
Mean Temperature 71 °F 74 °F  
Max Temperature 80 °F 88 °F 104 °F (1897)
Min Temperature 62 °F 60 °F 50 °F (2002)
Degree Days  
Heating Degree Days 0 0  
Month to date heating degree days 0  
Since 1 June heating degree days 41  
Since 1 July heating degree days 4  
Cooling Degree Days 6 9  
Month to date cooling degree days 177  
Year to date cooling degree days 731  
Since 1 June cooling degree days 690  
Growing Degree Days 21 (Base 50)    
Moisture  
Dew Point 65 °F    
Average Humidity 87    
Maximum Humidity 100    
Minimum Humidity 61    
Precipitation  
Precipitation 0.00 in 0.08 in 1.67 in (1989)
Month to date precipitation 1.79  
Year to date precipitation 14.99  
Snow  
Snow 0.00 in 0.00 in - ()
Month to date snowfall 0.0  
Since 1 June snowfall 0.0  
Since 1 July snowfall 0.0  
Snow Depth -    
Sea Level Pressure  
Sea Level Pressure 30.10 in    
Wind  
Wind Speed 13 mph (SSE)    
Max Wind Speed 20 mph    
Max Gust Speed 24 mph    
Visibility 8 miles    
Events      
T = Trace of Precipitation, MM = Missing Value Source: NWS Daily Summary

Daily Weather History Graph

Daily Weather History Graph

Search for Another Location

Airport:

Trip Planner

Search our weather history database for the weather conditions in past years. The results will help you decide how hot, cold, wet, or windy it might be!

Date:

Astronomy

Aug. 18, 2013 Rise Set
Actual Time 6:59 AM CDT 8:35 PM CDT
Civil Twilight 6:31 AM CDT 9:03 PM CDT
Nautical Twilight 5:57 AM CDT 9:37 PM CDT
Astronomical Twilight 5:20 AM CDT 10:14 PM CDT
Moon 6:42 PM CDT (8/18) 4:11 AM CDT (8/18)
Length of Visible Light 14h 32m
Length of Day
13h 35m
Waxing Gibbous, 92% of the Moon is Illuminated
Aug 18
Waxing Gibbous
Aug 20
Full
Aug 28
Last Quarter
Sep 5
New
Sep 12
First Quarter

Hourly Weather History & Observations

Time (CDT) Temp. Heat Index Dew Point Humidity Pressure Visibility Wind Dir Wind Speed Gust Speed Precip Events Conditions
12:15 AM 68.0 °F - 66.2 °F 94% 30.14 in 10.0 mi SSE 16.1 mph - N/A   Overcast
12:35 AM 68.0 °F - 66.2 °F 94% 30.13 in 10.0 mi SSE 12.7 mph 18.4 mph N/A   Overcast
12:55 AM 68.0 °F - 66.2 °F 94% 30.14 in 10.0 mi SSE 13.8 mph - N/A   Overcast
1:15 AM 66.2 °F - 66.2 °F 100% 30.14 in 10.0 mi SSE 13.8 mph - N/A   Overcast
1:35 AM 66.2 °F - 64.4 °F 94% 30.14 in 10.0 mi SSE 13.8 mph - N/A   Overcast
1:55 AM 66.2 °F - 64.4 °F 94% 30.13 in 7.0 mi SSE 12.7 mph - N/A   Mostly Cloudy
2:15 AM 64.4 °F - 64.4 °F 100% 30.12 in 7.0 mi SSE 13.8 mph 17.3 mph N/A   Mostly Cloudy
2:35 AM 64.4 °F - 64.4 °F 100% 30.12 in 7.0 mi SSE 11.5 mph - N/A   Mostly Cloudy
2:55 AM 64.4 °F - 64.4 °F 100% 30.12 in 7.0 mi SSE 12.7 mph - N/A   Overcast
3:15 AM 64.4 °F - 64.4 °F 100% 30.12 in 7.0 mi SE 11.5 mph - N/A   Overcast
3:35 AM 64.4 °F - 64.4 °F 100% 30.11 in 5.0 mi SE 8.1 mph - N/A   Overcast
3:55 AM 64.4 °F - 64.4 °F 100% 30.12 in 4.0 mi SE 6.9 mph - N/A   Overcast
4:15 AM 62.6 °F - 62.6 °F 100% 30.11 in 3.0 mi SE 10.4 mph - N/A   Overcast
4:35 AM 62.6 °F - 62.6 °F 100% 30.11 in 4.0 mi SE 11.5 mph - N/A   Overcast
4:55 AM 64.4 °F - 64.4 °F 100% 30.10 in 5.0 mi SSE 11.5 mph - N/A   Overcast
5:15 AM 64.4 °F - 64.4 °F 100% 30.10 in 5.0 mi SE 12.7 mph - N/A   Overcast
5:35 AM 64.4 °F - 64.4 °F 100% 30.10 in 5.0 mi SSE 15.0 mph 18.4 mph N/A   Overcast
5:55 AM 64.4 °F - 64.4 °F 100% 30.10 in 5.0 mi SSE 15.0 mph 20.7 mph N/A   Overcast
6:15 AM 64.4 °F - 64.4 °F 100% 30.11 in 5.0 mi SSE 12.7 mph - N/A   Overcast
6:35 AM 64.4 °F - 64.4 °F 100% 30.11 in 7.0 mi SSE 13.8 mph - N/A   Overcast
6:55 AM 64.4 °F - 64.4 °F 100% 30.11 in 7.0 mi SSE 12.7 mph 17.3 mph N/A   Overcast
7:15 AM 64.4 °F - 64.4 °F 100% 30.12 in 5.0 mi SSE 11.5 mph - N/A   Overcast
7:35 AM 64.4 °F - 64.4 °F 100% 30.12 in 5.0 mi SSE 12.7 mph - N/A   Overcast
8:15 AM 64.4 °F - 64.4 °F 100% 30.12 in 5.0 mi SSE 12.7 mph 18.4 mph N/A   Overcast
8:35 AM 64.4 °F - 64.4 °F 100% 30.12 in 5.0 mi SSE 12.7 mph - N/A   Overcast
8:55 AM 64.4 °F - 64.4 °F 100% 30.12 in 4.0 mi SSE 12.7 mph - N/A   Overcast
9:15 AM 64.4 °F - 64.4 °F 100% 30.12 in 4.0 mi SSE 11.5 mph 17.3 mph N/A   Overcast
9:35 AM 64.4 °F - 64.4 °F 100% 30.12 in 4.0 mi SSE 10.4 mph - N/A   Overcast
9:55 AM 64.4 °F - 64.4 °F 100% 30.12 in 5.0 mi SSE 10.4 mph - N/A   Overcast
10:15 AM 64.4 °F - 64.4 °F 100% 30.12 in 5.0 mi SSE 10.4 mph - N/A   Overcast
10:35 AM 66.2 °F - 64.4 °F 94% 30.12 in 7.0 mi SSE 11.5 mph - N/A   Overcast
10:55 AM 66.2 °F - 64.4 °F 94% 30.12 in 7.0 mi South 9.2 mph - N/A   Overcast
11:15 AM 66.2 °F - 64.4 °F 94% 30.13 in 7.0 mi South 11.5 mph - N/A   Overcast
11:35 AM 66.2 °F - 64.4 °F 94% 30.13 in 7.0 mi South 10.4 mph - N/A   Overcast
11:55 AM 68.0 °F - 64.4 °F 88% 30.13 in 7.0 mi South 11.5 mph - N/A   Overcast
12:15 PM 68.0 °F - 64.4 °F 88% 30.13 in 10.0 mi SSE 10.4 mph - N/A   Overcast
12:35 PM 68.0 °F - 64.4 °F 88% 30.12 in 7.0 mi South 9.2 mph - N/A   Overcast
12:55 PM 68.0 °F - 64.4 °F 88% 30.12 in 10.0 mi SSE 10.4 mph - N/A   Overcast
1:15 PM 69.8 °F - 64.4 °F 83% 30.12 in 10.0 mi SSE 10.4 mph 17.3 mph N/A   Overcast
1:35 PM 69.8 °F - 64.4 °F 83% 30.11 in 10.0 mi SSE 15.0 mph - N/A   Overcast
1:55 PM 69.8 °F - 64.4 °F 83% 30.11 in 10.0 mi SSE 11.5 mph 17.3 mph N/A   Overcast
2:15 PM 71.6 °F - 64.4 °F 78% 30.11 in 10.0 mi SE 11.5 mph - N/A   Overcast
2:35 PM 71.6 °F - 66.2 °F 83% 30.10 in 10.0 mi SSE 13.8 mph 18.4 mph N/A   Overcast
2:55 PM 75.2 °F - 66.2 °F 73% 30.09 in 10.0 mi SSE 13.8 mph - N/A   Mostly Cloudy
3:15 PM 77.0 °F - 66.2 °F 69% 30.09 in 10.0 mi SSE 17.3 mph - N/A   Mostly Cloudy
3:35 PM 77.0 °F - 68.0 °F 74% 30.08 in 10.0 mi SSE 12.7 mph 23.0 mph N/A   Scattered Clouds
3:55 PM 78.8 °F - 68.0 °F 69% 30.07 in 10.0 mi SE 15.0 mph 24.2 mph N/A   Clear
4:15 PM 78.8 °F - 68.0 °F 69% 30.06 in 10.0 mi SSE 19.6 mph - N/A   Clear
4:35 PM 80.6 °F 83.2 °F 68.0 °F 65% 30.05 in 10.0 mi SSE 13.8 mph - N/A   Unknown
4:55 PM 80.6 °F 83.2 °F 68.0 °F 65% 30.05 in 10.0 mi SSE 17.3 mph - N/A   Clear
5:15 PM 80.6 °F 83.2 °F 68.0 °F 65% 30.05 in 10.0 mi SSE 17.3 mph 20.7 mph N/A   Clear
5:35 PM 80.6 °F 83.2 °F 68.0 °F 65% 30.05 in 10.0 mi SSE 18.4 mph 24.2 mph N/A   Clear
5:55 PM 80.6 °F 83.2 °F 68.0 °F 65% 30.05 in 10.0 mi South 16.1 mph - N/A   Clear
6:15 PM 80.6 °F 83.2 °F 68.0 °F 65% 30.05 in 10.0 mi SSE 16.1 mph 19.6 mph N/A   Clear
6:35 PM 80.6 °F 82.7 °F 66.2 °F 61% 30.04 in 10.0 mi SSE 15.0 mph 21.9 mph N/A   Clear
6:55 PM 80.6 °F 82.7 °F 66.2 °F 61% 30.04 in 10.0 mi SSE 16.1 mph 21.9 mph N/A   Clear
7:15 PM 78.8 °F - 66.2 °F 65% 30.04 in 10.0 mi SSE 15.0 mph - N/A   Clear
7:35 PM 78.8 °F - 66.2 °F 65% 30.04 in 10.0 mi SSE 13.8 mph - N/A   Clear
7:55 PM 77.0 °F - 66.2 °F 69% 30.05 in 10.0 mi SSE 11.5 mph - N/A   Clear
8:15 PM 77.0 °F - 64.4 °F 65% 30.07 in 10.0 mi SSE 12.7 mph - N/A   Clear
8:35 PM 75.2 °F - 64.4 °F 69% 30.07 in 10.0 mi SSE 10.4 mph - N/A   Clear
8:55 PM 71.6 °F - 66.2 °F 83% 30.08 in 10.0 mi SE 6.9 mph - N/A   Clear
9:15 PM 69.8 °F - 66.2 °F 88% 30.08 in 10.0 mi SE 6.9 mph - N/A   Clear
9:35 PM 69.8 °F - 66.2 °F 88% 30.09 in 10.0 mi SE 8.1 mph - N/A   Clear
9:55 PM 69.8 °F - 66.2 °F 88% 30.10 in 10.0 mi SE 6.9 mph - N/A   Clear
10:15 PM 69.8 °F - 66.2 °F 88% 30.10 in 10.0 mi SE 6.9 mph - N/A   Clear
10:35 PM 69.8 °F - 66.2 °F 88% 30.12 in 10.0 mi ESE 5.8 mph - N/A   Clear
10:55 PM 69.8 °F - 66.2 °F 88% 30.12 in 10.0 mi SE 5.8 mph - N/A   Clear
11:15 PM 69.8 °F - 66.2 °F 88% 30.12 in 10.0 mi SE 8.1 mph - N/A   Clear
11:35 PM 69.8 °F - 64.4 °F 83% 30.12 in 10.0 mi SE 9.2 mph - N/A   Clear
11:55 PM 68.0 °F - 64.4 °F 88% 30.13 in 10.0 mi SE 8.1 mph - N/A   Clear